Time,TemperatureF,DewpointF,PressureIn,WindDirection,WindDirectionDegrees,WindSpeedMPH,WindSpeedGustMPH,Humidity,HourlyPrecipIn,Conditions,Clouds,dailyrainin,SolarRadiationWatts/m^2,SoftwareType,DateUTC
2013-01-13 00:05:00,-3.1,-9.0,30.25,NW,305,0.0,0.0,76,0.00,,,0.00,0,weatherlink.com 1.10,2013-01-13 07:05:00,
2013-01-13 00:20:00,-3.0,-9.0,30.25,NW,305,0.0,0.0,76,0.00,,,0.00,0,weatherlink.com 1.10,2013-01-13 07:20:00,
2013-01-13 00:35:00,-2.2,-8.0,30.26,West,261,0.0,1.0,76,0.00,,,0.00,0,weatherlink.com 1.10,2013-01-13 07:35:00,
2013-01-13 00:50:00,-0.9,-8.0,30.26,West,261,0.0,0.0,73,0.00,,,0.00,0,weatherlink.com 1.10,2013-01-13 07:50:00,
2013-01-13 01:05:00,-2.3,-8.0,30.26,West,261,0.0,0.0,75,0.00,,,0.00,0,weatherlink.com 1.10,2013-01-13 08:05:00,
2013-01-13 01:20:00,-1.6,-8.0,30.27,West,260,0.0,1.0,75,0.00,,,0.00,0,weatherlink.com 1.10,2013-01-13 08:20:00,
2013-01-13 01:35:00,-1.2,-8.0,30.28,West,262,0.0,1.0,74,0.00,,,0.00,0,weatherlink.com 1.10,2013-01-13 08:35:00,
2013-01-13 01:50:00,-1.5,-8.0,30.28,West,259,0.0,0.0,74,0.00,,,0.00,0,weatherlink.com 1.10,2013-01-13 08:50:00,
2013-01-13 02:05:00,-2.8,-9.0,30.29,West,259,0.0,0.0,76,0.00,,,0.00,0,weatherlink.com 1.10,2013-01-13 09:05:00,
2013-01-13 02:20:00,-3.1,-9.0,30.30,WNW,289,0.0,3.0,77,0.00,,,0.00,0,weatherlink.com 1.10,2013-01-13 09:20:00,
2013-01-13 02:35:00,-3.1,-9.0,30.31,SE,139,0.0,1.0,77,0.00,,,0.00,0,weatherlink.com 1.10,2013-01-13 09:35:00,
2013-01-13 02:50:00,-2.8,-8.0,30.31,SE,145,0.0,2.0,78,0.00,,,0.00,0,weatherlink.com 1.10,2013-01-13 09:50:00,
2013-01-13 03:05:00,-2.4,-8.0,30.31,NE,34,0.0,1.0,78,0.00,,,0.00,0,weatherlink.com 1.10,2013-01-13 10:05:00,
2013-01-13 03:21:00,-1.3,-7.0,30.31,WNW,285,0.0,2.0,78,0.00,,,0.00,0,weatherlink.com 1.10,2013-01-13 10:21:00,
2013-01-13 03:36:00,-0.9,-6.0,30.29,WSW,252,0.0,1.0,78,0.00,,,0.00,0,weatherlink.com 1.10,2013-01-13 10:36:00,
2013-01-13 03:51:00,-1.4,-6.0,30.29,WSW,243,0.0,1.0,79,0.00,,,0.00,0,weatherlink.com 1.10,2013-01-13 10:51:00,
2013-01-13 04:06:00,-1.3,-6.0,30.29,WSW,243,2.0,2.0,80,0.00,,,0.00,0,weatherlink.com 1.10,2013-01-13 11:06:00,
2013-01-13 04:21:00,-1.2,-6.0,30.29,West,259,0.0,2.0,79,0.00,,,0.00,0,weatherlink.com 1.10,2013-01-13 11:21:00,
2013-01-13 04:36:00,-1.7,-7.0,30.29,SSW,205,0.0,2.0,79,0.00,,,0.00,0,weatherlink.com 1.10,2013-01-13 11:36:00,
2013-01-13 04:51:00,-1.4,-6.0,30.28,West,266,1.0,4.0,80,0.00,,,0.00,0,weatherlink.com 1.10,2013-01-13 11:51:00,
2013-01-13 05:06:00,-1.4,-6.0,30.28,West,262,0.0,1.0,79,0.00,,,0.00,0,weatherlink.com 1.10,2013-01-13 12:06:00,
2013-01-13 05:21:00,-1.9,-7.0,30.29,WSW,250,0.0,1.0,80,0.00,,,0.00,0,weatherlink.com 1.10,2013-01-13 12:21:00,
2013-01-13 05:36:00,-2.9,-8.0,30.28,ESE,121,0.0,0.0,80,0.00,,,0.00,0,weatherlink.com 1.10,2013-01-13 12:36:00,
2013-01-13 05:51:00,-2.9,-7.0,30.29,ESE,121,0.0,0.0,82,0.00,,,0.00,0,weatherlink.com 1.10,2013-01-13 12:51:00,
2013-01-13 06:06:00,-2.0,-7.0,30.29,ESE,121,0.0,0.0,80,0.00,,,0.00,0,weatherlink.com 1.10,2013-01-13 13:06:00,
2013-01-13 06:21:00,-1.0,-6.0,30.30,ESE,115,0.0,1.0,78,0.00,,,0.00,0,weatherlink.com 1.10,2013-01-13 13:21:00,
2013-01-13 06:36:00,-0.7,-6.0,30.31,SE,128,0.0,1.0,78,0.00,,,0.00,0,weatherlink.com 1.10,2013-01-13 13:36:00,
2013-01-13 06:52:00,-0.4,-6.0,30.31,WNW,302,0.0,3.0,77,0.00,,,0.00,0,weatherlink.com 1.10,2013-01-13 13:52:00,
2013-01-13 07:07:00,-0.1,-6.0,30.32,SE,144,0.0,3.0,76,0.00,,,0.00,0,weatherlink.com 1.10,2013-01-13 14:07:00,
2013-01-13 07:22:00,0.3,-6.0,30.32,WNW,298,2.0,4.0,75,0.00,,,0.00,5,weatherlink.com 1.10,2013-01-13 14:22:00,
2013-01-13 07:37:00,0.5,-6.0,30.32,SSE,162,0.0,1.0,75,0.00,,,0.00,14,weatherlink.com 1.10,2013-01-13 14:37:00,
2013-01-13 07:52:00,0.1,-6.0,30.32,SSE,148,0.0,1.0,75,0.00,,,0.00,26,weatherlink.com 1.10,2013-01-13 14:52:00,
2013-01-13 08:07:00,0.0,-6.0,30.32,SE,142,0.0,2.0,75,0.00,,,0.00,40,weatherlink.com 1.10,2013-01-13 15:07:00,
2013-01-13 08:22:00,0.3,-6.0,30.32,SE,127,0.0,1.0,75,0.00,,,0.00,67,weatherlink.com 1.10,2013-01-13 15:22:00,
2013-01-13 08:37:00,0.9,-6.0,30.32,ESE,113,0.0,1.0,74,0.00,,,0.00,60,weatherlink.com 1.10,2013-01-13 15:37:00,
2013-01-13 08:52:00,1.3,-6.0,30.32,SW,225,0.0,1.0,73,0.00,,,0.00,67,weatherlink.com 1.10,2013-01-13 15:52:00,
2013-01-13 09:07:00,1.3,-6.0,30.31,South,189,1.0,3.0,72,0.00,,,0.00,65,weatherlink.com 1.10,2013-01-13 16:07:00,
2013-01-13 09:22:00,2.2,-5.0,30.32,WNW,296,0.0,2.0,71,0.00,,,0.00,93,weatherlink.com 1.10,2013-01-13 16:22:00,
2013-01-13 09:37:00,3.2,-5.0,30.32,WSW,249,2.0,5.0,68,0.00,,,0.00,100,weatherlink.com 1.10,2013-01-13 16:37:00,
2013-01-13 09:52:00,4.1,-5.0,30.32,WSW,253,0.0,4.0,66,0.00,,,0.00,135,weatherlink.com 1.10,2013-01-13 16:52:00,
2013-01-13 10:08:00,5.3,-5.0,30.32,WSW,255,2.0,4.0,63,0.00,,,0.00,144,weatherlink.com 1.10,2013-01-13 17:08:00,
2013-01-13 10:23:00,6.3,-6.0,30.33,NW,308,6.0,7.0,58,0.00,,,0.00,176,weatherlink.com 1.10,2013-01-13 17:23:00,
2013-01-13 10:38:00,6.7,-6.0,30.32,West,281,1.0,6.0,57,0.00,,,0.00,167,weatherlink.com 1.10,2013-01-13 17:38:00,
2013-01-13 10:53:00,6.8,-8.0,30.32,WSW,243,1.0,7.0,52,0.00,,,0.00,241,weatherlink.com 1.10,2013-01-13 17:53:00,
2013-01-13 11:08:00,7.6,-7.0,30.31,West,267,4.0,5.0,52,0.00,,,0.00,209,weatherlink.com 1.10,2013-01-13 18:08:00,
2013-01-13 11:23:00,7.7,-6.0,30.30,SW,235,4.0,13.0,53,0.00,,,0.00,244,weatherlink.com 1.10,2013-01-13 18:23:00,
2013-01-13 11:38:00,8.1,-6.0,30.30,WSW,254,1.0,7.0,52,0.00,,,0.00,204,weatherlink.com 1.10,2013-01-13 18:38:00,
2013-01-13 11:53:00,8.0,-7.0,30.29,SW,225,0.0,8.0,51,0.00,,,0.00,200,weatherlink.com 1.10,2013-01-13 18:53:00,
2013-01-13 12:08:00,8.7,-7.0,30.27,NE,43,2.0,7.0,48,0.00,,,0.00,200,weatherlink.com 1.10,2013-01-13 19:08:00,
2013-01-13 12:23:00,8.9,-7.0,30.27,SSW,213,1.0,5.0,48,0.00,,,0.00,758,weatherlink.com 1.10,2013-01-13 19:23:00,
2013-01-13 12:38:00,10.5,-5.0,30.26,West,269,0.0,7.0,49,0.00,,,0.00,339,weatherlink.com 1.10,2013-01-13 19:38:00,
2013-01-13 12:53:00,10.6,-6.0,30.27,West,267,2.0,5.0,48,0.00,,,0.00,248,weatherlink.com 1.10,2013-01-13 19:53:00,
2013-01-13 13:08:00,11.2,-6.0,30.25,WNW,296,4.0,6.0,46,0.00,,,0.00,202,weatherlink.com 1.10,2013-01-13 20:08:00,
2013-01-13 13:23:00,11.1,-6.0,30.26,WSW,257,4.0,8.0,47,0.00,,,0.00,183,weatherlink.com 1.10,2013-01-13 20:23:00,
2013-01-13 13:39:00,11.3,-6.0,30.26,WSW,244,5.0,7.0,45,0.00,,,0.00,123,weatherlink.com 1.10,2013-01-13 20:39:00,
2013-01-13 13:54:00,11.1,-6.0,30.25,WSW,245,1.0,5.0,47,0.00,,,0.00,540,weatherlink.com 1.10,2013-01-13 20:54:00,
2013-01-13 14:09:00,11.9,-4.0,30.26,WSW,250,2.0,5.0,48,0.00,,,0.00,146,weatherlink.com 1.10,2013-01-13 21:09:00,
2013-01-13 14:24:00,11.6,-5.0,30.26,WSW,248,3.0,5.0,48,0.00,,,0.00,176,weatherlink.com 1.10,2013-01-13 21:24:00,
2013-01-13 14:39:00,11.1,-4.0,30.26,WNW,291,1.0,6.0,51,0.00,,,0.00,93,weatherlink.com 1.10,2013-01-13 21:39:00,
2013-01-13 14:54:00,11.7,-3.0,30.27,West,277,1.0,4.0,51,0.00,,,0.00,77,weatherlink.com 1.10,2013-01-13 21:54:00,
2013-01-13 15:09:00,11.4,-4.0,30.27,WSW,252,0.0,3.0,51,0.00,,,0.00,62,weatherlink.com 1.10,2013-01-13 22:09:00,
2013-01-13 15:24:00,11.6,-4.0,30.27,WSW,254,2.0,4.0,50,0.00,,,0.00,63,weatherlink.com 1.10,2013-01-13 22:24:00,
2013-01-13 15:39:00,10.8,-4.0,30.27,WSW,256,1.0,3.0,52,0.00,,,0.00,105,weatherlink.com 1.10,2013-01-13 22:39:00,
2013-01-13 15:54:00,10.4,-4.0,30.28,West,273,0.0,2.0,52,0.00,,,0.00,70,weatherlink.com 1.10,2013-01-13 22:54:00,
2013-01-13 16:09:00,10.4,-4.0,30.28,West,273,0.0,2.0,52,0.00,,,0.00,77,weatherlink.com 1.10,2013-01-13 23:09:00,
2013-01-13 16:24:00,9.8,-4.0,30.27,WNW,287,0.0,2.0,53,0.00,,,0.00,37,weatherlink.com 1.10,2013-01-13 23:24:00,
2013-01-13 16:39:00,8.2,-5.0,30.28,WNW,287,0.0,0.0,54,0.00,,,0.00,23,weatherlink.com 1.10,2013-01-13 23:39:00,
2013-01-13 16:55:00,7.2,-6.0,30.28,WNW,287,0.0,0.0,56,0.00,,,0.00,11,weatherlink.com 1.10,2013-01-13 23:55:00,
2013-01-13 17:10:00,5.9,-6.0,30.29,WNW,287,0.0,0.0,58,0.00,,,0.00,0,weatherlink.com 1.10,2013-01-14 00:10:00,
2013-01-13 17:25:00,5.1,-6.0,30.29,WNW,287,0.0,0.0,60,0.00,,,0.00,0,weatherlink.com 1.10,2013-01-14 00:25:00,
2013-01-13 17:40:00,4.1,-6.0,30.29,WNW,287,0.0,0.0,62,0.00,,,0.00,0,weatherlink.com 1.10,2013-01-14 00:40:00,
2013-01-13 17:55:00,4.2,-6.0,30.30,WNW,287,0.0,0.0,62,0.00,,,0.00,0,weatherlink.com 1.10,2013-01-14 00:55:00,
2013-01-13 18:10:00,3.1,-6.0,30.30,WNW,287,0.0,0.0,65,0.00,,,0.00,0,weatherlink.com 1.10,2013-01-14 01:10:00,
2013-01-13 18:25:00,3.2,-6.0,30.30,WNW,287,0.0,0.0,65,0.00,,,0.00,0,weatherlink.com 1.10,2013-01-14 01:25:00,
2013-01-13 18:40:00,3.8,-6.0,30.30,WNW,287,0.0,0.0,65,0.00,,,0.00,0,weatherlink.com 1.10,2013-01-14 01:40:00,
2013-01-13 18:55:00,3.3,-6.0,30.31,WNW,287,0.0,0.0,65,0.00,,,0.00,0,weatherlink.com 1.10,2013-01-14 01:55:00,
2013-01-13 19:10:00,2.8,-6.0,30.31,WNW,287,0.0,0.0,66,0.00,,,0.00,0,weatherlink.com 1.10,2013-01-14 02:10:00,
2013-01-13 19:25:00,2.7,-6.0,30.31,WNW,287,0.0,0.0,67,0.00,,,0.00,0,weatherlink.com 1.10,2013-01-14 02:25:00,
2013-01-13 19:40:00,2.3,-6.0,30.32,WNW,287,0.0,0.0,68,0.00,,,0.00,0,weatherlink.com 1.10,2013-01-14 02:40:00,
2013-01-13 19:55:00,2.3,-6.0,30.32,WNW,287,0.0,0.0,69,0.00,,,0.00,0,weatherlink.com 1.10,2013-01-14 02:55:00,
2013-01-13 20:10:00,2.6,-6.0,30.31,WNW,287,0.0,0.0,68,0.00,,,0.00,0,weatherlink.com 1.10,2013-01-14 03:10:00,
2013-01-13 20:26:00,2.2,-6.0,30.31,WNW,287,0.0,0.0,69,0.00,,,0.00,0,weatherlink.com 1.10,2013-01-14 03:26:00,
2013-01-13 20:41:00,2.8,-5.0,30.31,WNW,287,0.0,0.0,69,0.00,,,0.00,0,weatherlink.com 1.10,2013-01-14 03:41:00,
2013-01-13 20:56:00,3.5,-6.0,30.31,SW,232,0.0,1.0,66,0.00,,,0.00,0,weatherlink.com 1.10,2013-01-14 03:56:00,
2013-01-13 21:11:00,4.3,-5.0,30.31,ESE,117,0.0,1.0,65,0.00,,,0.00,0,weatherlink.com 1.10,2013-01-14 04:11:00,
2013-01-13 21:26:00,4.4,-3.0,30.31,WNW,282,1.0,2.0,73,0.00,,,0.00,0,weatherlink.com 1.10,2013-01-14 04:26:00,
2013-01-13 21:41:00,4.5,-1.0,30.32,ESE,108,1.0,6.0,78,0.00,,,0.00,0,weatherlink.com 1.10,2013-01-14 04:41:00,
2013-01-13 21:56:00,4.6,-1.0,30.32,East,94,1.0,4.0,79,0.00,,,0.00,0,weatherlink.com 1.10,2013-01-14 04:56:00,
2013-01-13 22:11:00,4.7,0.0,30.32,NE,40,2.0,5.0,80,0.00,,,0.00,0,weatherlink.com 1.10,2013-01-14 05:11:00,
2013-01-13 22:26:00,4.9,0.0,30.32,SSE,162,0.0,6.0,80,0.00,,,0.00,0,weatherlink.com 1.10,2013-01-14 05:26:00,
2013-01-13 22:41:00,4.7,-1.0,30.32,East,88,0.0,7.0,78,0.00,,,0.00,0,weatherlink.com 1.10,2013-01-14 05:41:00,
2013-01-13 22:56:00,4.6,-1.0,30.31,East,87,0.0,5.0,78,0.00,,,0.00,0,weatherlink.com 1.10,2013-01-14 05:56:00,
2013-01-13 23:11:00,4.3,-1.0,30.32,NE,55,1.0,3.0,78,0.00,,,0.00,0,weatherlink.com 1.10,2013-01-14 06:11:00,
2013-01-13 23:26:00,2.3,-3.0,30.32,WNW,292,1.0,3.0,78,0.00,,,0.00,0,weatherlink.com 1.10,2013-01-14 06:26:00,
2013-01-13 23:42:00,0.7,-3.0,30.32,East,91,0.0,2.0,83,0.00,,,0.00,0,weatherlink.com 1.10,2013-01-14 06:42:00,
2013-01-13 23:57:00,3.1,-1.0,30.32,West,280,0.0,3.0,82,0.00,,,0.00,0,weatherlink.com 1.10,2013-01-14 06:57:00,